sensor_id;sensor_type;location;lat;lon;timestamp;P1;durP1;ratioP1;P2;durP2;ratioP2
10801;SDS011;5453;50.852;7.102;2023-03-13T00:02:05;6.53;;;1.45;;
10801;SDS011;5453;50.852;7.102;2023-03-13T00:04:37;9.27;;;1.50;;
10801;SDS011;5453;50.852;7.102;2023-03-13T00:07:09;8.88;;;1.85;;
10801;SDS011;5453;50.852;7.102;2023-03-13T00:09:42;6.55;;;1.77;;
10801;SDS011;5453;50.852;7.102;2023-03-13T00:12:14;11.80;;;1.73;;
10801;SDS011;5453;50.852;7.102;2023-03-13T00:14:48;6.80;;;1.58;;
10801;SDS011;5453;50.852;7.102;2023-03-13T00:17:20;8.48;;;1.65;;
10801;SDS011;5453;50.852;7.102;2023-03-13T00:19:52;6.55;;;1.83;;
10801;SDS011;5453;50.852;7.102;2023-03-13T00:22:25;9.63;;;1.65;;
10801;SDS011;5453;50.852;7.102;2023-03-13T00:24:57;11.82;;;2.33;;
10801;SDS011;5453;50.852;7.102;2023-03-13T00:27:31;10.82;;;2.17;;
10801;SDS011;5453;50.852;7.102;2023-03-13T00:30:06;7.38;;;1.55;;
10801;SDS011;5453;50.852;7.102;2023-03-13T00:32:40;8.48;;;1.83;;
10801;SDS011;5453;50.852;7.102;2023-03-13T00:35:12;8.48;;;1.63;;
10801;SDS011;5453;50.852;7.102;2023-03-13T00:37:45;9.25;;;1.85;;
10801;SDS011;5453;50.852;7.102;2023-03-13T00:40:18;8.32;;;1.60;;
10801;SDS011;5453;50.852;7.102;2023-03-13T00:42:50;10.45;;;1.58;;
10801;SDS011;5453;50.852;7.102;2023-03-13T00:45:24;6.32;;;1.33;;
10801;SDS011;5453;50.852;7.102;2023-03-13T00:47:57;7.85;;;1.60;;
10801;SDS011;5453;50.852;7.102;2023-03-13T00:50:29;6.30;;;1.90;;
10801;SDS011;5453;50.852;7.102;2023-03-13T00:53:01;10.40;;;1.83;;
10801;SDS011;5453;50.852;7.102;2023-03-13T00:55:33;7.38;;;1.80;;
10801;SDS011;5453;50.852;7.102;2023-03-13T00:58:06;6.70;;;2.00;;
10801;SDS011;5453;50.852;7.102;2023-03-13T01:00:39;10.27;;;1.75;;
10801;SDS011;5453;50.852;7.102;2023-03-13T01:03:11;13.00;;;1.95;;
10801;SDS011;5453;50.852;7.102;2023-03-13T01:05:44;13.82;;;1.73;;
10801;SDS011;5453;50.852;7.102;2023-03-13T01:08:26;9.05;;;1.98;;
10801;SDS011;5453;50.852;7.102;2023-03-13T01:11:00;7.80;;;1.65;;
10801;SDS011;5453;50.852;7.102;2023-03-13T01:13:34;9.07;;;1.98;;
10801;SDS011;5453;50.852;7.102;2023-03-13T01:16:09;11.07;;;1.85;;
10801;SDS011;5453;50.852;7.102;2023-03-13T01:18:44;10.38;;;1.85;;
10801;SDS011;5453;50.852;7.102;2023-03-13T01:21:19;10.90;;;1.92;;
10801;SDS011;5453;50.852;7.102;2023-03-13T01:23:53;6.65;;;1.50;;
10801;SDS011;5453;50.852;7.102;2023-03-13T01:26:26;6.53;;;1.67;;
10801;SDS011;5453;50.852;7.102;2023-03-13T01:28:59;12.50;;;1.85;;
10801;SDS011;5453;50.852;7.102;2023-03-13T01:31:33;7.38;;;1.67;;
10801;SDS011;5453;50.852;7.102;2023-03-13T01:34:10;6.35;;;1.35;;
10801;SDS011;5453;50.852;7.102;2023-03-13T01:36:42;6.93;;;1.95;;
10801;SDS011;5453;50.852;7.102;2023-03-13T01:39:15;8.05;;;1.60;;
10801;SDS011;5453;50.852;7.102;2023-03-13T01:41:48;8.93;;;1.65;;
10801;SDS011;5453;50.852;7.102;2023-03-13T01:44:21;8.57;;;1.50;;
10801;SDS011;5453;50.852;7.102;2023-03-13T01:46:57;7.28;;;1.55;;
10801;SDS011;5453;50.852;7.102;2023-03-13T01:49:30;9.20;;;1.38;;
10801;SDS011;5453;50.852;7.102;2023-03-13T01:52:15;7.45;;;1.90;;
10801;SDS011;5453;50.852;7.102;2023-03-13T01:54:55;6.82;;;1.90;;
10801;SDS011;5453;50.852;7.102;2023-03-13T01:57:32;9.23;;;1.50;;
10801;SDS011;5453;50.852;7.102;2023-03-13T02:00:08;4.03;;;1.58;;
10801;SDS011;5453;50.852;7.102;2023-03-13T02:02:47;5.00;;;1.23;;
10801;SDS011;5453;50.852;7.102;2023-03-13T02:05:23;6.68;;;1.48;;
10801;SDS011;5453;50.852;7.102;2023-03-13T02:07:58;6.93;;;1.42;;
10801;SDS011;5453;50.852;7.102;2023-03-13T02:10:36;5.20;;;1.40;;
10801;SDS011;5453;50.852;7.102;2023-03-13T02:13:14;6.80;;;1.60;;
10801;SDS011;5453;50.852;7.102;2023-03-13T02:15:47;8.77;;;1.90;;
10801;SDS011;5453;50.852;7.102;2023-03-13T02:18:21;7.68;;;1.73;;
10801;SDS011;5453;50.852;7.102;2023-03-13T02:20:55;5.05;;;1.25;;
10801;SDS011;5453;50.852;7.102;2023-03-13T02:23:35;8.88;;;1.63;;
10801;SDS011;5453;50.852;7.102;2023-03-13T02:26:16;8.25;;;1.55;;
10801;SDS011;5453;50.852;7.102;2023-03-13T02:28:49;5.10;;;1.30;;
10801;SDS011;5453;50.852;7.102;2023-03-13T02:31:22;6.75;;;1.40;;
10801;SDS011;5453;50.852;7.102;2023-03-13T02:33:54;6.72;;;1.52;;
10801;SDS011;5453;50.852;7.102;2023-03-13T02:36:31;6.38;;;1.17;;
10801;SDS011;5453;50.852;7.102;2023-03-13T02:39:03;5.15;;;1.40;;
10801;SDS011;5453;50.852;7.102;2023-03-13T02:41:38;3.80;;;1.20;;
10801;SDS011;5453;50.852;7.102;2023-03-13T02:46:45;4.85;;;1.08;;
10801;SDS011;5453;50.852;7.102;2023-03-13T02:49:23;4.43;;;0.90;;
10801;SDS011;5453;50.852;7.102;2023-03-13T02:51:59;4.38;;;1.20;;
10801;SDS011;5453;50.852;7.102;2023-03-13T02:54:46;3.20;;;1.10;;
10801;SDS011;5453;50.852;7.102;2023-03-13T02:57:25;4.50;;;1.13;;
10801;SDS011;5453;50.852;7.102;2023-03-13T02:59:58;4.25;;;0.90;;
10801;SDS011;5453;50.852;7.102;2023-03-13T03:02:31;3.60;;;0.98;;
10801;SDS011;5453;50.852;7.102;2023-03-13T03:05:03;4.20;;;1.02;;
10801;SDS011;5453;50.852;7.102;2023-03-13T03:07:36;4.88;;;0.85;;
10801;SDS011;5453;50.852;7.102;2023-03-13T03:10:10;4.65;;;0.82;;
10801;SDS011;5453;50.852;7.102;2023-03-13T03:12:46;3.33;;;0.73;;
10801;SDS011;5453;50.852;7.102;2023-03-13T03:15:20;2.42;;;0.85;;
10801;SDS011;5453;50.852;7.102;2023-03-13T03:17:52;3.88;;;1.00;;
10801;SDS011;5453;50.852;7.102;2023-03-13T03:20:25;4.40;;;0.90;;
10801;SDS011;5453;50.852;7.102;2023-03-13T03:22:57;2.60;;;0.70;;
10801;SDS011;5453;50.852;7.102;2023-03-13T03:25:30;2.33;;;0.63;;
10801;SDS011;5453;50.852;7.102;2023-03-13T03:28:04;4.72;;;0.70;;
10801;SDS011;5453;50.852;7.102;2023-03-13T03:30:36;4.70;;;0.88;;
10801;SDS011;5453;50.852;7.102;2023-03-13T03:33:09;2.03;;;0.70;;
10801;SDS011;5453;50.852;7.102;2023-03-13T03:35:41;1.05;;;0.57;;
10801;SDS011;5453;50.852;7.102;2023-03-13T03:38:13;3.85;;;0.60;;
10801;SDS011;5453;50.852;7.102;2023-03-13T03:40:46;1.17;;;0.50;;
10801;SDS011;5453;50.852;7.102;2023-03-13T03:43:22;2.55;;;0.60;;
10801;SDS011;5453;50.852;7.102;2023-03-13T03:45:56;2.40;;;0.70;;
10801;SDS011;5453;50.852;7.102;2023-03-13T03:48:28;1.85;;;0.60;;
10801;SDS011;5453;50.852;7.102;2023-03-13T03:51:13;0.70;;;0.47;;
10801;SDS011;5453;50.852;7.102;2023-03-13T03:53:47;0.50;;;0.50;;
10801;SDS011;5453;50.852;7.102;2023-03-13T03:56:19;1.98;;;0.80;;
10801;SDS011;5453;50.852;7.102;2023-03-13T03:59:00;1.40;;;0.50;;
10801;SDS011;5453;50.852;7.102;2023-03-13T04:01:47;2.72;;;0.45;;
10801;SDS011;5453;50.852;7.102;2023-03-13T04:04:25;1.52;;;0.43;;
10801;SDS011;5453;50.852;7.102;2023-03-13T04:07:11;2.30;;;0.43;;
10801;SDS011;5453;50.852;7.102;2023-03-13T04:09:44;0.43;;;0.43;;
10801;SDS011;5453;50.852;7.102;2023-03-13T04:12:24;1.15;;;0.45;;
10801;SDS011;5453;50.852;7.102;2023-03-13T04:15:01;1.23;;;0.70;;
10801;SDS011;5453;50.852;7.102;2023-03-13T04:17:34;0.88;;;0.63;;
10801;SDS011;5453;50.852;7.102;2023-03-13T04:20:08;0.98;;;0.50;;
10801;SDS011;5453;50.852;7.102;2023-03-13T04:22:43;1.33;;;0.40;;
10801;SDS011;5453;50.852;7.102;2023-03-13T04:25:16;1.13;;;0.50;;
10801;SDS011;5453;50.852;7.102;2023-03-13T04:27:48;0.60;;;0.43;;
10801;SDS011;5453;50.852;7.102;2023-03-13T04:30:25;1.92;;;0.65;;
10801;SDS011;5453;50.852;7.102;2023-03-13T04:33:17;2.97;;;0.68;;
10801;SDS011;5453;50.852;7.102;2023-03-13T04:36:09;0.40;;;0.40;;
10801;SDS011;5453;50.852;7.102;2023-03-13T04:39:04;0.50;;;0.40;;
10801;SDS011;5453;50.852;7.102;2023-03-13T04:41:56;3.35;;;0.73;;
10801;SDS011;5453;50.852;7.102;2023-03-13T04:44:47;0.55;;;0.30;;
10801;SDS011;5453;50.852;7.102;2023-03-13T04:47:38;0.73;;;0.50;;
10801;SDS011;5453;50.852;7.102;2023-03-13T04:50:16;1.27;;;0.55;;
10801;SDS011;5453;50.852;7.102;2023-03-13T04:53:07;0.43;;;0.40;;
10801;SDS011;5453;50.852;7.102;2023-03-13T04:55:59;0.75;;;0.35;;
10801;SDS011;5453;50.852;7.102;2023-03-13T04:58:47;0.50;;;0.30;;
10801;SDS011;5453;50.852;7.102;2023-03-13T05:01:52;0.60;;;0.32;;
10801;SDS011;5453;50.852;7.102;2023-03-13T05:04:44;1.95;;;0.47;;
10801;SDS011;5453;50.852;7.102;2023-03-13T05:07:29;0.88;;;0.28;;
10801;SDS011;5453;50.852;7.102;2023-03-13T05:10:32;0.43;;;0.40;;
10801;SDS011;5453;50.852;7.102;2023-03-13T05:13:29;0.40;;;0.40;;
10801;SDS011;5453;50.852;7.102;2023-03-13T05:16:11;0.30;;;0.30;;
10801;SDS011;5453;50.852;7.102;2023-03-13T05:19:02;0.20;;;0.20;;
10801;SDS011;5453;50.852;7.102;2023-03-13T05:22:05;0.13;;;0.13;;
10801;SDS011;5453;50.852;7.102;2023-03-13T05:25:00;0.30;;;0.30;;
10801;SDS011;5453;50.852;7.102;2023-03-13T05:27:51;0.38;;;0.30;;
10801;SDS011;5453;50.852;7.102;2023-03-13T05:30:42;0.32;;;0.30;;
10801;SDS011;5453;50.852;7.102;2023-03-13T05:33:37;0.32;;;0.32;;
10801;SDS011;5453;50.852;7.102;2023-03-13T05:36:24;0.73;;;0.35;;
10801;SDS011;5453;50.852;7.102;2023-03-13T05:39:16;0.20;;;0.20;;
10801;SDS011;5453;50.852;7.102;2023-03-13T05:41:51;0.30;;;0.28;;
10801;SDS011;5453;50.852;7.102;2023-03-13T05:44:56;0.30;;;0.30;;
10801;SDS011;5453;50.852;7.102;2023-03-13T05:48:06;0.47;;;0.30;;
10801;SDS011;5453;50.852;7.102;2023-03-13T05:50:57;0.75;;;0.30;;
10801;SDS011;5453;50.852;7.102;2023-03-13T05:53:46;0.30;;;0.22;;
10801;SDS011;5453;50.852;7.102;2023-03-13T05:56:34;0.20;;;0.20;;
10801;SDS011;5453;50.852;7.102;2023-03-13T05:59:15;0.40;;;0.30;;
10801;SDS011;5453;50.852;7.102;2023-03-13T06:02:13;0.20;;;0.20;;
10801;SDS011;5453;50.852;7.102;2023-03-13T06:04:49;0.32;;;0.30;;
10801;SDS011;5453;50.852;7.102;2023-03-13T06:07:21;0.40;;;0.40;;
10801;SDS011;5453;50.852;7.102;2023-03-13T06:09:54;0.43;;;0.25;;
10801;SDS011;5453;50.852;7.102;2023-03-13T06:12:29;0.20;;;0.20;;
10801;SDS011;5453;50.852;7.102;2023-03-13T06:15:07;0.22;;;0.22;;
10801;SDS011;5453;50.852;7.102;2023-03-13T06:17:59;0.30;;;0.30;;
10801;SDS011;5453;50.852;7.102;2023-03-13T06:20:31;0.47;;;0.47;;
10801;SDS011;5453;50.852;7.102;2023-03-13T06:23:05;2.65;;;0.45;;
10801;SDS011;5453;50.852;7.102;2023-03-13T06:25:37;1.27;;;0.65;;
10801;SDS011;5453;50.852;7.102;2023-03-13T06:28:12;2.03;;;0.63;;
10801;SDS011;5453;50.852;7.102;2023-03-13T06:30:45;1.45;;;0.45;;
10801;SDS011;5453;50.852;7.102;2023-03-13T06:33:17;0.77;;;0.50;;
10801;SDS011;5453;50.852;7.102;2023-03-13T06:35:49;0.75;;;0.40;;
10801;SDS011;5453;50.852;7.102;2023-03-13T06:38:22;0.50;;;0.50;;
10801;SDS011;5453;50.852;7.102;2023-03-13T06:40:55;0.47;;;0.47;;
10801;SDS011;5453;50.852;7.102;2023-03-13T06:43:29;1.00;;;0.30;;
10801;SDS011;5453;50.852;7.102;2023-03-13T06:46:03;0.52;;;0.32;;
10801;SDS011;5453;50.852;7.102;2023-03-13T06:48:36;0.43;;;0.38;;
10801;SDS011;5453;50.852;7.102;2023-03-13T06:51:10;1.52;;;0.40;;
10801;SDS011;5453;50.852;7.102;2023-03-13T06:53:43;0.45;;;0.40;;
10801;SDS011;5453;50.852;7.102;2023-03-13T06:56:17;0.55;;;0.43;;
10801;SDS011;5453;50.852;7.102;2023-03-13T06:58:52;0.47;;;0.43;;
10801;SDS011;5453;50.852;7.102;2023-03-13T07:01:24;0.90;;;0.65;;
10801;SDS011;5453;50.852;7.102;2023-03-13T07:03:57;1.33;;;0.50;;
10801;SDS011;5453;50.852;7.102;2023-03-13T07:06:29;2.35;;;0.70;;
10801;SDS011;5453;50.852;7.102;2023-03-13T07:09:01;0.65;;;0.60;;
10801;SDS011;5453;50.852;7.102;2023-03-13T07:11:34;0.82;;;0.50;;
10801;SDS011;5453;50.852;7.102;2023-03-13T07:14:08;1.83;;;0.80;;
10801;SDS011;5453;50.852;7.102;2023-03-13T07:16:40;2.20;;;0.90;;
10801;SDS011;5453;50.852;7.102;2023-03-13T07:19:13;0.75;;;0.63;;
10801;SDS011;5453;50.852;7.102;2023-03-13T07:21:45;1.30;;;0.60;;
10801;SDS011;5453;50.852;7.102;2023-03-13T07:24:18;1.15;;;0.80;;
10801;SDS011;5453;50.852;7.102;2023-03-13T07:26:51;2.22;;;0.80;;
10801;SDS011;5453;50.852;7.102;2023-03-13T07:29:25;1.38;;;0.70;;
10801;SDS011;5453;50.852;7.102;2023-03-13T07:31:57;1.13;;;0.63;;
10801;SDS011;5453;50.852;7.102;2023-03-13T07:34:29;1.25;;;0.80;;
10801;SDS011;5453;50.852;7.102;2023-03-13T07:37:02;1.02;;;0.80;;
10801;SDS011;5453;50.852;7.102;2023-03-13T07:39:34;3.50;;;1.13;;
10801;SDS011;5453;50.852;7.102;2023-03-13T07:42:07;4.20;;;1.10;;
10801;SDS011;5453;50.852;7.102;2023-03-13T07:44:42;1.80;;;1.00;;
10801;SDS011;5453;50.852;7.102;2023-03-13T07:47:14;1.60;;;1.10;;
10801;SDS011;5453;50.852;7.102;2023-03-13T07:49:46;1.60;;;1.20;;
10801;SDS011;5453;50.852;7.102;2023-03-13T07:52:18;3.63;;;1.25;;
10801;SDS011;5453;50.852;7.102;2023-03-13T07:54:52;2.33;;;1.27;;
10801;SDS011;5453;50.852;7.102;2023-03-13T07:57:24;3.03;;;1.30;;
10801;SDS011;5453;50.852;7.102;2023-03-13T07:59:58;1.67;;;1.10;;
10801;SDS011;5453;50.852;7.102;2023-03-13T08:02:30;3.35;;;1.20;;
10801;SDS011;5453;50.852;7.102;2023-03-13T08:05:04;1.65;;;1.20;;
10801;SDS011;5453;50.852;7.102;2023-03-13T08:07:37;1.17;;;0.80;;
10801;SDS011;5453;50.852;7.102;2023-03-13T08:10:09;2.00;;;1.17;;
10801;SDS011;5453;50.852;7.102;2023-03-13T08:12:42;3.00;;;1.05;;
10801;SDS011;5453;50.852;7.102;2023-03-13T08:15:15;2.83;;;1.00;;
10801;SDS011;5453;50.852;7.102;2023-03-13T08:17:54;3.75;;;1.00;;
10801;SDS011;5453;50.852;7.102;2023-03-13T08:20:27;2.38;;;1.20;;
10801;SDS011;5453;50.852;7.102;2023-03-13T08:22:59;1.58;;;1.05;;
10801;SDS011;5453;50.852;7.102;2023-03-13T08:25:32;1.73;;;1.10;;
10801;SDS011;5453;50.852;7.102;2023-03-13T08:28:04;2.10;;;0.93;;
10801;SDS011;5453;50.852;7.102;2023-03-13T08:30:37;2.53;;;1.20;;
10801;SDS011;5453;50.852;7.102;2023-03-13T08:33:10;4.43;;;1.20;;
10801;SDS011;5453;50.852;7.102;2023-03-13T08:35:42;2.70;;;1.08;;
10801;SDS011;5453;50.852;7.102;2023-03-13T08:38:14;2.72;;;1.23;;
10801;SDS011;5453;50.852;7.102;2023-03-13T08:40:47;2.70;;;1.33;;
10801;SDS011;5453;50.852;7.102;2023-03-13T08:43:21;3.25;;;1.17;;
10801;SDS011;5453;50.852;7.102;2023-03-13T08:45:55;1.85;;;1.00;;
10801;SDS011;5453;50.852;7.102;2023-03-13T08:48:27;1.83;;;1.00;;
10801;SDS011;5453;50.852;7.102;2023-03-13T08:51:00;3.35;;;1.40;;
10801;SDS011;5453;50.852;7.102;2023-03-13T08:53:35;2.13;;;1.10;;
10801;SDS011;5453;50.852;7.102;2023-03-13T08:56:09;2.92;;;1.20;;
10801;SDS011;5453;50.852;7.102;2023-03-13T08:58:43;3.47;;;1.40;;
10801;SDS011;5453;50.852;7.102;2023-03-13T09:01:21;4.25;;;1.40;;
10801;SDS011;5453;50.852;7.102;2023-03-13T09:03:55;2.67;;;1.30;;
10801;SDS011;5453;50.852;7.102;2023-03-13T09:06:29;2.65;;;1.30;;
10801;SDS011;5453;50.852;7.102;2023-03-13T09:09:02;2.25;;;1.00;;
10801;SDS011;5453;50.852;7.102;2023-03-13T09:11:37;2.92;;;1.38;;
10801;SDS011;5453;50.852;7.102;2023-03-13T09:14:09;2.85;;;1.20;;
10801;SDS011;5453;50.852;7.102;2023-03-13T09:16:43;4.20;;;1.13;;
10801;SDS011;5453;50.852;7.102;2023-03-13T09:19:17;4.57;;;1.20;;
10801;SDS011;5453;50.852;7.102;2023-03-13T09:21:49;3.10;;;1.17;;
10801;SDS011;5453;50.852;7.102;2023-03-13T09:24:21;1.65;;;1.15;;
10801;SDS011;5453;50.852;7.102;2023-03-13T09:26:53;2.42;;;1.20;;
10801;SDS011;5453;50.852;7.102;2023-03-13T09:29:25;5.50;;;1.25;;
10801;SDS011;5453;50.852;7.102;2023-03-13T09:31:58;1.63;;;1.30;;
10801;SDS011;5453;50.852;7.102;2023-03-13T09:34:31;3.35;;;1.20;;
10801;SDS011;5453;50.852;7.102;2023-03-13T09:37:03;2.13;;;0.98;;
10801;SDS011;5453;50.852;7.102;2023-03-13T09:39:35;3.38;;;1.10;;
10801;SDS011;5453;50.852;7.102;2023-03-13T09:42:08;1.77;;;1.30;;
10801;SDS011;5453;50.852;7.102;2023-03-13T09:44:47;2.42;;;1.25;;
10801;SDS011;5453;50.852;7.102;2023-03-13T09:47:29;3.47;;;1.27;;
10801;SDS011;5453;50.852;7.102;2023-03-13T09:50:11;2.17;;;1.27;;
10801;SDS011;5453;50.852;7.102;2023-03-13T09:52:49;2.17;;;1.03;;
10801;SDS011;5453;50.852;7.102;2023-03-13T09:55:26;2.55;;;1.15;;
10801;SDS011;5453;50.852;7.102;2023-03-13T09:58:02;3.08;;;1.00;;
10801;SDS011;5453;50.852;7.102;2023-03-13T10:00:42;1.58;;;1.00;;
10801;SDS011;5453;50.852;7.102;2023-03-13T10:03:21;2.90;;;1.10;;
10801;SDS011;5453;50.852;7.102;2023-03-13T10:05:59;1.88;;;1.10;;
10801;SDS011;5453;50.852;7.102;2023-03-13T10:08:35;1.42;;;0.80;;
10801;SDS011;5453;50.852;7.102;2023-03-13T10:11:09;3.15;;;1.00;;
10801;SDS011;5453;50.852;7.102;2023-03-13T10:13:47;2.03;;;1.00;;
10801;SDS011;5453;50.852;7.102;2023-03-13T10:16:25;3.22;;;1.08;;
10801;SDS011;5453;50.852;7.102;2023-03-13T10:19:07;1.77;;;1.00;;
10801;SDS011;5453;50.852;7.102;2023-03-13T10:21:46;1.75;;;0.98;;
10801;SDS011;5453;50.852;7.102;2023-03-13T10:24:26;1.15;;;0.80;;
10801;SDS011;5453;50.852;7.102;2023-03-13T10:27:03;1.63;;;0.90;;
10801;SDS011;5453;50.852;7.102;2023-03-13T10:29:36;1.50;;;1.20;;
10801;SDS011;5453;50.852;7.102;2023-03-13T10:32:09;2.10;;;0.90;;
10801;SDS011;5453;50.852;7.102;2023-03-13T10:34:50;1.13;;;0.90;;
10801;SDS011;5453;50.852;7.102;2023-03-13T10:37:27;2.20;;;1.00;;
10801;SDS011;5453;50.852;7.102;2023-03-13T10:40:12;2.30;;;1.10;;
10801;SDS011;5453;50.852;7.102;2023-03-13T10:42:52;3.10;;;1.10;;
10801;SDS011;5453;50.852;7.102;2023-03-13T10:45:34;1.58;;;0.90;;
10801;SDS011;5453;50.852;7.102;2023-03-13T10:48:10;2.47;;;1.13;;
10801;SDS011;5453;50.852;7.102;2023-03-13T10:50:46;2.55;;;0.93;;
10801;SDS011;5453;50.852;7.102;2023-03-13T10:53:25;1.55;;;0.80;;
10801;SDS011;5453;50.852;7.102;2023-03-13T10:56:08;1.70;;;1.30;;
10801;SDS011;5453;50.852;7.102;2023-03-13T10:58:44;2.05;;;0.90;;
10801;SDS011;5453;50.852;7.102;2023-03-13T11:01:20;2.63;;;1.02;;
10801;SDS011;5453;50.852;7.102;2023-03-13T11:03:55;1.60;;;1.02;;
10801;SDS011;5453;50.852;7.102;2023-03-13T11:06:31;2.15;;;0.98;;
10801;SDS011;5453;50.852;7.102;2023-03-13T11:09:09;1.38;;;0.80;;
10801;SDS011;5453;50.852;7.102;2023-03-13T11:11:45;1.67;;;0.80;;
10801;SDS011;5453;50.852;7.102;2023-03-13T11:14:21;0.80;;;0.80;;
10801;SDS011;5453;50.852;7.102;2023-03-13T11:16:57;0.65;;;0.60;;
10801;SDS011;5453;50.852;7.102;2023-03-13T11:19:44;1.05;;;0.73;;
10801;SDS011;5453;50.852;7.102;2023-03-13T11:25:32;0.73;;;0.70;;
10801;SDS011;5453;50.852;7.102;2023-03-13T11:28:16;1.48;;;0.50;;
10801;SDS011;5453;50.852;7.102;2023-03-13T11:31:03;0.55;;;0.50;;
10801;SDS011;5453;50.852;7.102;2023-03-13T11:33:45;1.38;;;0.30;;
10801;SDS011;5453;50.852;7.102;2023-03-13T11:36:32;0.70;;;0.60;;
10801;SDS011;5453;50.852;7.102;2023-03-13T11:39:14;2.00;;;0.50;;
10801;SDS011;5453;50.852;7.102;2023-03-13T11:42:14;0.30;;;0.30;;
10801;SDS011;5453;50.852;7.102;2023-03-13T11:45:21;1.08;;;0.47;;
10801;SDS011;5453;50.852;7.102;2023-03-13T11:48:31;0.50;;;0.50;;
10801;SDS011;5453;50.852;7.102;2023-03-13T11:51:31;0.35;;;0.35;;
10801;SDS011;5453;50.852;7.102;2023-03-13T11:54:24;0.40;;;0.30;;
10801;SDS011;5453;50.852;7.102;2023-03-13T11:57:27;0.93;;;0.52;;
10801;SDS011;5453;50.852;7.102;2023-03-13T12:00:14;0.60;;;0.38;;
10801;SDS011;5453;50.852;7.102;2023-03-13T12:02:56;0.65;;;0.20;;
10801;SDS011;5453;50.852;7.102;2023-03-13T12:05:37;0.20;;;0.20;;
10801;SDS011;5453;50.852;7.102;2023-03-13T12:08:17;0.35;;;0.35;;
10801;SDS011;5453;50.852;7.102;2023-03-13T12:10:55;0.63;;;0.32;;
10801;SDS011;5453;50.852;7.102;2023-03-13T12:13:37;0.40;;;0.38;;
10801;SDS011;5453;50.852;7.102;2023-03-13T12:16:13;0.55;;;0.40;;
10801;SDS011;5453;50.852;7.102;2023-03-13T12:18:50;1.15;;;0.45;;
10801;SDS011;5453;50.852;7.102;2023-03-13T12:21:26;0.22;;;0.22;;
10801;SDS011;5453;50.852;7.102;2023-03-13T12:24:03;0.80;;;0.50;;
10801;SDS011;5453;50.852;7.102;2023-03-13T12:29:24;0.82;;;0.45;;
10801;SDS011;5453;50.852;7.102;2023-03-13T12:32:12;0.57;;;0.50;;
10801;SDS011;5453;50.852;7.102;2023-03-13T12:34:54;0.60;;;0.40;;
10801;SDS011;5453;50.852;7.102;2023-03-13T12:37:37;1.25;;;0.45;;
10801;SDS011;5453;50.852;7.102;2023-03-13T12:40:15;0.88;;;0.40;;
10801;SDS011;5453;50.852;7.102;2023-03-13T12:43:01;2.60;;;0.63;;
10801;SDS011;5453;50.852;7.102;2023-03-13T12:45:44;0.40;;;0.40;;
10801;SDS011;5453;50.852;7.102;2023-03-13T12:51:51;1.48;;;0.45;;
10801;SDS011;5453;50.852;7.102;2023-03-13T12:54:52;1.58;;;0.50;;
10801;SDS011;5453;50.852;7.102;2023-03-13T12:57:54;0.57;;;0.57;;
10801;SDS011;5453;50.852;7.102;2023-03-13T13:00:44;1.23;;;0.43;;
10801;SDS011;5453;50.852;7.102;2023-03-13T13:03:22;1.30;;;0.60;;
10801;SDS011;5453;50.852;7.102;2023-03-13T13:06:04;0.60;;;0.60;;
10801;SDS011;5453;50.852;7.102;2023-03-13T13:08:40;0.73;;;0.70;;
10801;SDS011;5453;50.852;7.102;2023-03-13T13:17:50;0.63;;;0.60;;
10801;SDS011;5453;50.852;7.102;2023-03-13T13:20:44;0.85;;;0.55;;
10801;SDS011;5453;50.852;7.102;2023-03-13T13:23:29;1.25;;;0.60;;
10801;SDS011;5453;50.852;7.102;2023-03-13T13:32:32;1.80;;;0.70;;
10801;SDS011;5453;50.852;7.102;2023-03-13T13:35:21;1.33;;;0.60;;
10801;SDS011;5453;50.852;7.102;2023-03-13T13:38:25;0.80;;;0.70;;
10801;SDS011;5453;50.852;7.102;2023-03-13T13:41:22;1.40;;;0.60;;
10801;SDS011;5453;50.852;7.102;2023-03-13T13:44:19;1.83;;;0.77;;
10801;SDS011;5453;50.852;7.102;2023-03-13T13:46:56;0.47;;;0.43;;
10801;SDS011;5453;50.852;7.102;2023-03-13T13:49:35;0.80;;;0.43;;
10801;SDS011;5453;50.852;7.102;2023-03-13T13:52:33;0.93;;;0.43;;
10801;SDS011;5453;50.852;7.102;2023-03-13T13:58:12;0.40;;;0.40;;
10801;SDS011;5453;50.852;7.102;2023-03-13T14:00:51;0.40;;;0.40;;
10801;SDS011;5453;50.852;7.102;2023-03-13T14:03:27;1.13;;;0.60;;
10801;SDS011;5453;50.852;7.102;2023-03-13T14:06:02;2.75;;;0.90;;
10801;SDS011;5453;50.852;7.102;2023-03-13T14:08:48;1.98;;;0.60;;
10801;SDS011;5453;50.852;7.102;2023-03-13T14:11:25;0.40;;;0.40;;
10801;SDS011;5453;50.852;7.102;2023-03-13T14:14:09;0.40;;;0.40;;
10801;SDS011;5453;50.852;7.102;2023-03-13T14:16:46;0.98;;;0.38;;
10801;SDS011;5453;50.852;7.102;2023-03-13T14:19:23;0.80;;;0.50;;
10801;SDS011;5453;50.852;7.102;2023-03-13T14:21:59;0.85;;;0.45;;
10801;SDS011;5453;50.852;7.102;2023-03-13T14:24:33;0.40;;;0.40;;
10801;SDS011;5453;50.852;7.102;2023-03-13T14:27:13;0.50;;;0.40;;
10801;SDS011;5453;50.852;7.102;2023-03-13T14:29:59;0.85;;;0.30;;
10801;SDS011;5453;50.852;7.102;2023-03-13T14:32:31;1.05;;;0.40;;
10801;SDS011;5453;50.852;7.102;2023-03-13T14:35:03;0.35;;;0.35;;
10801;SDS011;5453;50.852;7.102;2023-03-13T14:37:41;0.40;;;0.40;;
10801;SDS011;5453;50.852;7.102;2023-03-13T14:40:18;1.45;;;0.50;;
10801;SDS011;5453;50.852;7.102;2023-03-13T14:42:55;0.30;;;0.30;;
10801;SDS011;5453;50.852;7.102;2023-03-13T14:45:30;0.45;;;0.45;;
10801;SDS011;5453;50.852;7.102;2023-03-13T14:48:04;1.65;;;0.70;;
10801;SDS011;5453;50.852;7.102;2023-03-13T14:50:50;0.32;;;0.30;;
10801;SDS011;5453;50.852;7.102;2023-03-13T14:53:32;0.90;;;0.50;;
10801;SDS011;5453;50.852;7.102;2023-03-13T14:56:08;0.82;;;0.60;;
10801;SDS011;5453;50.852;7.102;2023-03-13T14:58:45;1.08;;;0.32;;
10801;SDS011;5453;50.852;7.102;2023-03-13T15:01:22;0.50;;;0.35;;
10801;SDS011;5453;50.852;7.102;2023-03-13T15:03:59;1.45;;;0.38;;
10801;SDS011;5453;50.852;7.102;2023-03-13T15:06:31;0.50;;;0.50;;
10801;SDS011;5453;50.852;7.102;2023-03-13T15:09:14;1.48;;;0.50;;
10801;SDS011;5453;50.852;7.102;2023-03-13T15:11:54;0.52;;;0.47;;
10801;SDS011;5453;50.852;7.102;2023-03-13T15:14:36;0.65;;;0.40;;
10801;SDS011;5453;50.852;7.102;2023-03-13T15:17:14;0.77;;;0.40;;
10801;SDS011;5453;50.852;7.102;2023-03-13T15:19:50;0.45;;;0.40;;
10801;SDS011;5453;50.852;7.102;2023-03-13T15:22:25;0.50;;;0.30;;
10801;SDS011;5453;50.852;7.102;2023-03-13T15:25:02;1.23;;;0.55;;
10801;SDS011;5453;50.852;7.102;2023-03-13T15:27:39;0.57;;;0.40;;
10801;SDS011;5453;50.852;7.102;2023-03-13T15:30:13;0.70;;;0.40;;
10801;SDS011;5453;50.852;7.102;2023-03-13T15:32:47;0.90;;;0.30;;
10801;SDS011;5453;50.852;7.102;2023-03-13T15:35:29;0.57;;;0.35;;
10801;SDS011;5453;50.852;7.102;2023-03-13T15:38:02;1.13;;;0.50;;
10801;SDS011;5453;50.852;7.102;2023-03-13T15:40:41;0.77;;;0.43;;
10801;SDS011;5453;50.852;7.102;2023-03-13T15:43:14;1.65;;;0.60;;
10801;SDS011;5453;50.852;7.102;2023-03-13T15:45:48;0.65;;;0.65;;
10801;SDS011;5453;50.852;7.102;2023-03-13T15:48:22;1.05;;;0.50;;
10801;SDS011;5453;50.852;7.102;2023-03-13T15:50:57;1.42;;;0.70;;
10801;SDS011;5453;50.852;7.102;2023-03-13T15:53:33;1.27;;;0.80;;
10801;SDS011;5453;50.852;7.102;2023-03-13T15:56:11;1.70;;;1.15;;
10801;SDS011;5453;50.852;7.102;2023-03-13T15:58:46;1.30;;;0.80;;
10801;SDS011;5453;50.852;7.102;2023-03-13T16:01:19;1.52;;;0.90;;
10801;SDS011;5453;50.852;7.102;2023-03-13T16:03:52;2.80;;;1.38;;
10801;SDS011;5453;50.852;7.102;2023-03-13T16:06:24;1.92;;;1.00;;
10801;SDS011;5453;50.852;7.102;2023-03-13T16:09:01;1.17;;;0.85;;
10801;SDS011;5453;50.852;7.102;2023-03-13T16:11:37;0.63;;;0.63;;
10801;SDS011;5453;50.852;7.102;2023-03-13T16:14:09;1.45;;;0.75;;
10801;SDS011;5453;50.852;7.102;2023-03-13T16:16:41;1.38;;;0.60;;
10801;SDS011;5453;50.852;7.102;2023-03-13T16:19:13;0.57;;;0.50;;
10801;SDS011;5453;50.852;7.102;2023-03-13T16:21:46;1.35;;;0.65;;
10801;SDS011;5453;50.852;7.102;2023-03-13T16:24:18;1.63;;;0.80;;
10801;SDS011;5453;50.852;7.102;2023-03-13T16:26:52;0.90;;;0.57;;
10801;SDS011;5453;50.852;7.102;2023-03-13T16:29:24;1.95;;;0.70;;
10801;SDS011;5453;50.852;7.102;2023-03-13T16:31:56;0.93;;;0.50;;
10801;SDS011;5453;50.852;7.102;2023-03-13T16:34:28;0.98;;;0.55;;